createdAt,value
2023-03-12T00:01:21.463Z,99285.72
2023-03-12T00:03:49.107Z,99283.94
2023-03-12T00:06:17.956Z,99281.19
2023-03-12T00:08:45.057Z,99296.19
2023-03-12T00:11:16.107Z,99304.09
2023-03-12T00:13:43.650Z,99305.88
2023-03-12T00:16:15.388Z,99308.16
2023-03-12T00:18:43.845Z,99315.25
2023-03-12T00:21:10.864Z,99318.94
2023-03-12T00:23:37.776Z,99314.78
2023-03-12T00:26:07.646Z,99326.22
2023-03-12T00:28:35.450Z,99337.00
2023-03-12T00:31:04.327Z,99334.75
2023-03-12T00:33:31.665Z,99328.81
2023-03-12T00:36:01.093Z,99329.63
2023-03-12T00:38:27.934Z,99332.19
2023-03-12T00:40:54.860Z,99333.66
2023-03-12T00:43:21.673Z,99335.91
2023-03-12T00:45:48.728Z,99325.91
2023-03-12T00:48:15.676Z,99330.72
2023-03-12T00:50:42.521Z,99321.06
2023-03-12T00:53:09.672Z,99309.16
2023-03-12T00:55:36.771Z,99305.44
2023-03-12T00:58:03.709Z,99279.34
2023-03-12T01:00:30.690Z,99297.38
2023-03-12T01:02:57.507Z,99295.31
2023-03-12T01:05:24.532Z,99302.41
2023-03-12T01:07:51.410Z,99290.63
2023-03-12T01:10:20.665Z,99282.88
2023-03-12T01:12:48.078Z,99289.81
2023-03-12T01:15:17.593Z,99281.75
2023-03-12T01:17:44.581Z,99287.38
2023-03-12T01:20:11.880Z,99284.34
2023-03-12T01:22:40.003Z,99298.19
2023-03-12T01:25:07.555Z,99287.56
2023-03-12T01:27:34.421Z,99283.69
2023-03-12T01:30:01.301Z,99272.44
2023-03-12T01:32:28.331Z,99270.34
2023-03-12T01:34:55.528Z,99272.91
2023-03-12T01:37:22.369Z,99287.88
2023-03-12T01:39:49.153Z,99277.59
2023-03-12T01:42:16.192Z,99294.31
2023-03-12T01:45:27.733Z,99303.19
2023-03-12T01:47:54.676Z,99317.84
2023-03-12T01:50:21.849Z,99325.06
2023-03-12T01:52:49.072Z,99350.00
2023-03-12T01:55:17.267Z,99361.66
2023-03-12T01:57:53.508Z,99373.25
2023-03-12T02:00:26.547Z,99379.00
2023-03-12T02:03:00.064Z,99383.66
2023-03-12T02:05:43.777Z,99389.47
2023-03-12T02:08:11.919Z,99402.78
2023-03-12T02:10:39.427Z,99398.28
2023-03-12T02:13:06.983Z,99393.13
2023-03-12T02:15:36.158Z,99398.06
2023-03-12T02:18:04.505Z,99400.31
2023-03-12T02:20:57.754Z,99387.75
2023-03-12T02:23:37.800Z,99385.13
2023-03-12T02:26:07.422Z,99375.47
2023-03-12T02:28:42.917Z,99372.59
2023-03-12T02:31:14.638Z,99350.63
2023-03-12T02:33:42.039Z,99346.44
2023-03-12T02:36:09.543Z,99350.03
2023-03-12T02:38:48.205Z,99347.94
2023-03-12T02:41:22.928Z,99337.72
2023-03-12T02:44:12.995Z,99335.81
2023-03-12T02:46:43.809Z,99339.72
2023-03-12T02:49:12.790Z,99343.81
2023-03-12T02:51:41.626Z,99339.53
2023-03-12T02:54:09.774Z,99354.31
2023-03-12T02:56:40.775Z,99367.25
2023-03-12T02:59:08.988Z,99373.06
2023-03-12T03:01:39.568Z,99378.53
2023-03-12T03:04:08.972Z,99388.34
2023-03-12T03:06:39.569Z,99397.44
2023-03-12T03:09:06.445Z,99402.13
2023-03-12T03:11:35.962Z,99422.25
2023-03-12T03:14:07.013Z,99407.53
2023-03-12T03:16:35.444Z,99428.59
2023-03-12T03:19:02.446Z,99431.69
2023-03-12T03:21:29.752Z,99427.31
2023-03-12T03:23:56.928Z,99444.66
2023-03-12T03:26:24.617Z,99459.00
2023-03-12T03:28:52.719Z,99470.47
2023-03-12T03:31:20.944Z,99494.00
2023-03-12T03:33:48.306Z,99536.38
2023-03-12T03:36:19.359Z,99550.56
2023-03-12T03:38:55.388Z,99560.38
2023-03-12T03:41:23.191Z,99571.25
2023-03-12T03:43:50.262Z,99571.72
2023-03-12T03:46:19.412Z,99578.81
2023-03-12T03:48:52.522Z,99569.22
2023-03-12T03:51:22.606Z,99589.84
2023-03-12T03:53:54.404Z,99597.34
2023-03-12T03:56:21.673Z,99607.44
2023-03-12T03:58:50.423Z,99620.81
2023-03-12T04:01:20.060Z,99634.38
2023-03-12T04:03:48.282Z,99648.47
2023-03-12T04:06:15.420Z,99650.16
2023-03-12T04:08:43.210Z,99662.19
2023-03-12T04:11:16.650Z,99664.44
2023-03-12T04:13:45.208Z,99663.22
2023-03-12T04:16:15.188Z,99671.00
2023-03-12T04:18:43.051Z,99666.75
2023-03-12T04:21:12.451Z,99691.84
2023-03-12T04:23:41.264Z,99702.06
2023-03-12T04:26:09.731Z,99700.03
2023-03-12T04:28:37.677Z,99710.34
2023-03-12T04:31:08.338Z,99718.25
2023-03-12T04:33:40.847Z,99732.81
2023-03-12T04:36:09.738Z,99742.31
2023-03-12T04:38:40.012Z,99735.84
2023-03-12T04:41:11.691Z,99728.38
2023-03-12T04:43:44.841Z,99712.06
2023-03-12T04:46:13.075Z,99708.03
2023-03-12T04:48:42.664Z,99700.31
2023-03-12T04:51:09.759Z,99708.34
2023-03-12T04:53:36.977Z,99716.09
2023-03-12T04:56:04.273Z,99724.00
2023-03-12T04:58:32.625Z,99730.19
2023-03-12T05:00:59.690Z,99731.13
2023-03-12T05:03:26.574Z,99735.25
2023-03-12T05:05:54.214Z,99734.75
2023-03-12T05:08:21.175Z,99743.88
2023-03-12T05:10:48.157Z,99749.34
2023-03-12T05:13:19.704Z,99760.22
2023-03-12T05:15:48.656Z,99770.34
2023-03-12T05:18:15.643Z,99785.38
2023-03-12T05:20:43.711Z,99768.13
2023-03-12T05:23:11.003Z,99782.28
2023-03-12T05:25:41.921Z,99779.72
2023-03-12T05:28:09.488Z,99785.66
2023-03-12T05:30:39.847Z,99784.84
2023-03-12T05:33:07.144Z,99791.38
2023-03-12T05:35:34.703Z,99796.63
2023-03-12T05:38:01.713Z,99815.94
2023-03-12T05:40:28.930Z,99816.25
2023-03-12T05:42:55.912Z,99822.16
2023-03-12T05:45:25.919Z,99836.38
2023-03-12T05:47:55.773Z,99831.63
2023-03-12T05:50:22.904Z,99835.16
2023-03-12T05:52:49.833Z,99833.66
2023-03-12T05:55:16.792Z,99850.75
2023-03-12T05:57:44.283Z,99863.56
2023-03-12T06:00:14.016Z,99856.28
2023-03-12T06:02:44.396Z,99867.41
2023-03-12T06:05:12.491Z,99869.81
2023-03-12T06:07:40.412Z,99873.19
2023-03-12T06:10:08.159Z,99876.53
2023-03-12T06:12:35.049Z,99887.56
2023-03-12T06:15:01.877Z,99879.03
2023-03-12T06:17:32.048Z,99889.97
2023-03-12T06:19:59.226Z,99892.22
2023-03-12T06:22:26.821Z,99894.41
2023-03-12T06:24:53.703Z,99904.19
2023-03-12T06:27:21.091Z,99899.44
2023-03-12T06:29:48.004Z,99908.63
2023-03-12T06:32:15.326Z,99902.69
2023-03-12T06:34:42.283Z,99906.25
2023-03-12T06:37:09.170Z,99921.13
2023-03-12T06:39:36.079Z,99925.31
2023-03-12T06:42:02.908Z,99922.22
2023-03-12T06:44:29.803Z,99923.75
2023-03-12T06:46:57.028Z,99939.16
2023-03-12T06:49:24.588Z,99938.34
2023-03-12T06:51:51.449Z,99929.00
2023-03-12T06:54:18.277Z,99947.97
2023-03-12T06:56:46.087Z,99959.25
2023-03-12T06:59:13.016Z,99962.66
2023-03-12T07:01:39.797Z,99962.41
2023-03-12T07:04:06.815Z,99968.53
2023-03-12T07:06:33.696Z,99969.94
2023-03-12T07:09:00.596Z,99977.66
2023-03-12T07:11:27.444Z,99981.25
2023-03-12T07:13:54.387Z,99987.22
2023-03-12T07:16:21.287Z,99995.66
2023-03-12T07:18:48.094Z,99997.91
2023-03-12T07:21:22.706Z,100001.41
2023-03-12T07:23:51.172Z,100014.88
2023-03-12T07:40:13.114Z,100021.38
2023-03-12T07:42:40.000Z,100017.72
2023-03-12T07:45:08.186Z,100019.78
2023-03-12T07:47:35.235Z,100034.34
2023-03-12T07:50:02.818Z,100035.03
2023-03-12T07:52:29.825Z,100034.88
2023-03-12T07:54:57.584Z,100032.19
2023-03-12T07:57:24.955Z,100052.53
2023-03-12T07:59:52.458Z,100046.56
2023-03-12T08:02:20.518Z,100047.41
2023-03-12T08:04:47.647Z,100050.00
2023-03-12T08:07:15.062Z,100049.84
2023-03-12T08:09:42.195Z,100050.50
2023-03-12T08:12:09.348Z,100053.56
2023-03-12T08:14:36.592Z,100063.44
2023-03-12T08:17:03.676Z,100066.50
2023-03-12T08:19:31.075Z,100078.13
2023-03-12T08:21:58.258Z,100081.09
2023-03-12T08:24:25.428Z,100077.34
2023-03-12T08:26:56.159Z,100091.28
2023-03-12T08:29:23.085Z,100101.06
2023-03-12T08:32:03.643Z,100103.25
2023-03-12T08:34:31.237Z,100116.25
2023-03-12T08:36:58.114Z,100119.97
2023-03-12T08:39:25.019Z,100126.19
2023-03-12T08:41:55.463Z,100129.25
2023-03-12T08:44:23.710Z,100132.84
2023-03-12T08:46:51.699Z,100133.53
2023-03-12T08:49:19.561Z,100143.97
2023-03-12T08:51:46.452Z,100144.41
2023-03-12T08:54:13.382Z,100146.91
2023-03-12T08:56:43.261Z,100150.22
2023-03-12T08:59:11.997Z,100162.06
2023-03-12T09:01:42.368Z,100158.34
2023-03-12T09:04:10.720Z,100158.78
2023-03-12T09:06:38.630Z,100153.81
2023-03-12T09:09:05.962Z,100155.53
2023-03-12T09:11:34.154Z,100159.88
2023-03-12T09:14:39.503Z,100163.19
2023-03-12T09:16:50.295Z,100166.03
2023-03-12T09:19:17.212Z,100169.53
2023-03-12T09:21:44.141Z,100172.88
2023-03-12T09:24:11.644Z,100171.63
2023-03-12T09:26:38.591Z,100178.50
2023-03-12T09:29:05.645Z,100180.28
2023-03-12T09:31:32.620Z,100186.25
2023-03-12T09:33:59.487Z,100180.94
2023-03-12T09:36:26.383Z,100188.19
2023-03-12T09:38:54.063Z,100188.31
2023-03-12T09:41:27.742Z,100197.75
2023-03-12T09:44:02.491Z,100207.72
2023-03-12T09:46:37.801Z,100202.16
2023-03-12T09:49:12.011Z,100194.63
2023-03-12T09:51:42.067Z,100198.19
2023-03-12T09:54:34.874Z,100211.66
2023-03-12T09:57:09.259Z,100217.78
2023-03-12T09:59:37.097Z,100215.13
2023-03-12T10:02:21.529Z,100207.53
2023-03-12T10:05:00.121Z,100217.53
2023-03-12T10:07:43.520Z,100220.72
2023-03-12T10:10:20.718Z,100220.31
2023-03-12T10:13:07.500Z,100220.16
2023-03-12T10:16:11.540Z,100223.50
2023-03-12T10:18:48.513Z,100219.41
2023-03-12T10:21:24.444Z,100231.38
2023-03-12T10:24:17.247Z,100232.13
2023-03-12T10:26:51.459Z,100242.97
2023-03-12T10:29:40.261Z,100235.44
2023-03-12T10:32:17.859Z,100238.44
2023-03-12T10:34:53.003Z,100231.69
2023-03-12T10:37:28.279Z,100237.69
2023-03-12T10:39:56.345Z,100229.66
2023-03-12T10:42:26.533Z,100233.88
2023-03-12T10:44:58.780Z,100238.50
2023-03-12T10:47:28.653Z,100232.09
2023-03-12T10:50:11.059Z,100228.19
2023-03-12T10:52:37.981Z,100223.56
2023-03-12T10:55:23.699Z,100235.78
2023-03-12T10:57:51.202Z,100231.53
2023-03-12T11:00:22.875Z,100232.25
2023-03-12T11:03:03.530Z,100236.78
2023-03-12T11:05:36.473Z,100233.31
2023-03-12T11:08:04.547Z,100237.97
2023-03-12T11:10:47.991Z,100236.97
2023-03-12T11:13:23.996Z,100244.41
2023-03-12T11:15:52.869Z,100243.19
2023-03-12T11:18:19.878Z,100238.22
2023-03-12T11:20:47.859Z,100252.66
2023-03-12T11:23:21.988Z,100252.88
2023-03-12T11:25:54.305Z,100249.81
2023-03-12T11:28:26.052Z,100249.00
2023-03-12T11:30:54.197Z,100244.69
2023-03-12T11:33:21.152Z,100252.19
2023-03-12T11:35:57.293Z,100250.00
2023-03-12T11:38:38.570Z,100244.13
2023-03-12T11:41:53.414Z,100251.72
2023-03-12T11:44:36.111Z,100248.06
2023-03-12T11:47:37.007Z,100251.16
2023-03-12T11:50:23.416Z,100246.34
2023-03-12T11:53:21.130Z,100246.69
2023-03-12T11:56:23.582Z,100255.06
2023-03-12T11:58:56.549Z,100263.44
2023-03-12T12:01:45.130Z,100264.81
2023-03-12T12:04:36.453Z,100262.41
2023-03-12T12:07:09.250Z,100269.34
2023-03-12T12:09:41.039Z,100259.84
2023-03-12T12:12:21.567Z,100264.13
2023-03-12T12:14:57.369Z,100267.06
2023-03-12T12:17:29.872Z,100267.56
2023-03-12T12:20:16.190Z,100273.06
2023-03-12T12:23:16.628Z,100272.59
2023-03-12T12:26:25.659Z,100274.66
2023-03-12T12:29:24.510Z,100286.06
2023-03-12T12:31:59.913Z,100275.00
2023-03-12T12:34:40.172Z,100300.16
2023-03-12T12:37:21.229Z,100299.19
2023-03-12T12:39:55.872Z,100291.25
2023-03-12T12:42:30.207Z,100295.75
2023-03-12T12:44:59.017Z,100304.66
2023-03-12T12:47:37.904Z,100316.88
2023-03-12T12:50:05.219Z,100318.88
2023-03-12T12:52:32.722Z,100318.84
2023-03-12T12:54:59.702Z,100327.75
2023-03-12T12:57:29.574Z,100328.34
2023-03-12T13:00:11.158Z,100347.88
2023-03-12T13:02:41.033Z,100337.34
2023-03-12T13:05:22.568Z,100342.41
2023-03-12T13:07:49.450Z,100349.09
2023-03-12T13:10:34.718Z,100359.50
2023-03-12T13:13:11.686Z,100350.84
2023-03-12T13:15:43.664Z,100361.16
2023-03-12T13:18:28.084Z,100356.88
2023-03-12T13:20:54.907Z,100361.75
2023-03-12T13:23:21.884Z,100363.09
2023-03-12T13:26:07.127Z,100367.34
2023-03-12T13:28:56.841Z,100372.72
2023-03-12T13:31:29.663Z,100373.84
2023-03-12T13:34:06.020Z,100368.25
2023-03-12T13:36:38.453Z,100374.66
2023-03-12T13:39:08.275Z,100379.03
2023-03-12T13:41:49.959Z,100378.56
2023-03-12T13:44:23.094Z,100385.06
2023-03-12T13:47:02.573Z,100382.00
2023-03-12T13:50:04.345Z,100385.88
2023-03-12T13:52:34.112Z,100387.66
2023-03-12T13:55:13.272Z,100383.22
2023-03-12T13:57:50.848Z,100392.88
2023-03-12T14:00:24.882Z,100392.28
2023-03-12T14:03:27.063Z,100397.56
2023-03-12T14:05:59.738Z,100398.69
2023-03-12T14:08:53.985Z,100399.41
2023-03-12T14:11:29.146Z,100403.16
2023-03-12T14:14:28.225Z,100414.16
2023-03-12T14:16:59.096Z,100405.41
2023-03-12T14:19:29.242Z,100408.44
2023-03-12T14:22:00.311Z,100410.97
2023-03-12T14:24:32.774Z,100417.19
2023-03-12T14:27:02.555Z,100414.66
2023-03-12T14:29:43.676Z,100421.34
2023-03-12T14:32:23.628Z,100414.53
2023-03-12T14:35:14.118Z,100424.06
2023-03-12T14:37:47.546Z,100420.31
2023-03-12T14:40:22.995Z,100423.47
2023-03-12T14:42:52.586Z,100428.25
2023-03-12T14:45:24.124Z,100431.78
2023-03-12T14:47:56.916Z,100426.59
2023-03-12T14:50:25.711Z,100437.56
2023-03-12T14:52:53.083Z,100434.47
2023-03-12T14:55:26.152Z,100431.84
2023-03-12T14:58:25.961Z,100436.25
2023-03-12T15:00:58.445Z,100437.16
2023-03-12T15:03:27.423Z,100440.31
2023-03-12T15:05:55.110Z,100447.44
2023-03-12T15:08:22.528Z,100453.00
2023-03-12T15:10:54.267Z,100460.19
2023-03-12T15:13:23.405Z,100469.22
2023-03-12T15:15:54.456Z,100466.81
2023-03-12T15:18:30.661Z,100469.41
2023-03-12T15:20:59.692Z,100477.03
2023-03-12T15:23:29.931Z,100479.56
2023-03-12T15:26:20.069Z,100485.72
2023-03-12T15:29:03.906Z,100478.53
2023-03-12T15:31:48.238Z,100487.66
2023-03-12T15:34:34.209Z,100497.31
2023-03-12T15:37:04.637Z,100494.25
2023-03-12T15:39:38.140Z,100503.41
2023-03-12T15:42:11.487Z,100503.50
2023-03-12T15:44:44.286Z,100509.25
2023-03-12T15:47:32.904Z,100512.34
2023-03-12T15:50:22.077Z,100518.84
2023-03-12T15:53:03.132Z,100529.22
2023-03-12T15:55:31.958Z,100527.13
2023-03-12T15:58:00.219Z,100529.31
2023-03-12T16:00:41.126Z,100529.44
2023-03-12T16:03:16.546Z,100533.38
2023-03-12T16:05:43.850Z,100540.50
2023-03-12T16:08:20.904Z,100551.59
2023-03-12T16:10:50.270Z,100553.25
2023-03-12T16:13:23.962Z,100549.75
2023-03-12T16:15:52.199Z,100564.22
2023-03-12T16:18:21.209Z,100565.91
2023-03-12T16:20:50.607Z,100563.31
2023-03-12T16:23:19.343Z,100561.38
2023-03-12T16:25:51.582Z,100567.41
2023-03-12T16:28:20.360Z,100578.66
2023-03-12T16:30:47.330Z,100584.72
2023-03-12T16:33:19.314Z,100597.25
2023-03-12T16:35:46.437Z,100596.19
2023-03-12T16:38:13.656Z,100599.47
2023-03-12T16:40:49.166Z,100614.00
2023-03-12T16:43:23.283Z,100609.03
2023-03-12T16:45:52.612Z,100628.06
2023-03-12T16:48:24.248Z,100627.13
2023-03-12T16:50:53.963Z,100631.84
2023-03-12T16:53:21.159Z,100637.25
2023-03-12T16:55:54.044Z,100633.09
2023-03-12T16:58:22.983Z,100646.31
2023-03-12T17:00:51.506Z,100650.69
2023-03-12T17:03:28.616Z,100654.81
2023-03-12T17:05:55.571Z,100664.47
2023-03-12T17:08:22.457Z,100665.28
2023-03-12T17:10:49.512Z,100670.16
2023-03-12T17:13:25.702Z,100680.31
2023-03-12T17:15:53.369Z,100667.56
2023-03-12T17:18:21.319Z,100667.03
2023-03-12T17:20:49.478Z,100675.06
2023-03-12T17:23:16.440Z,100681.25
2023-03-12T17:25:44.665Z,100691.13
2023-03-12T17:28:12.660Z,100701.16
2023-03-12T17:30:39.605Z,100708.28
2023-03-12T17:33:10.874Z,100711.44
2023-03-12T17:35:38.333Z,100718.81
2023-03-12T17:38:06.132Z,100717.72
2023-03-12T17:40:33.970Z,100728.09
2023-03-12T17:43:00.835Z,100720.75
2023-03-12T17:45:27.787Z,100717.88
2023-03-12T17:47:54.811Z,100731.81
2023-03-12T17:50:21.705Z,100731.59
2023-03-12T17:52:48.663Z,100739.91
2023-03-12T17:55:15.632Z,100740.34
2023-03-12T17:57:44.788Z,100737.91
2023-03-12T18:00:13.146Z,100744.50
2023-03-12T18:02:41.611Z,100746.53
2023-03-12T18:05:10.478Z,100749.69
2023-03-12T18:07:37.608Z,100760.41
2023-03-12T18:10:07.882Z,100749.81
2023-03-12T18:12:35.254Z,100756.03
2023-03-12T18:15:02.120Z,100751.50
2023-03-12T18:17:28.944Z,100756.84
2023-03-12T18:19:55.855Z,100752.09
2023-03-12T18:22:24.544Z,100759.25
2023-03-12T18:24:51.591Z,100768.72
2023-03-12T18:27:18.537Z,100778.28
2023-03-12T18:29:45.409Z,100786.50
2023-03-12T18:32:12.255Z,100784.28
2023-03-12T18:34:42.296Z,100787.28
2023-03-12T18:37:09.394Z,100786.50
2023-03-12T18:39:36.338Z,100796.47
2023-03-12T18:42:03.395Z,100801.34
2023-03-12T18:44:30.297Z,100805.53
2023-03-12T18:46:57.259Z,100809.47
2023-03-12T18:49:24.213Z,100814.03
2023-03-12T18:51:56.017Z,100817.38
2023-03-12T18:54:24.797Z,100813.00
2023-03-12T18:56:51.893Z,100826.03
2023-03-12T18:59:18.774Z,100829.66
2023-03-12T19:01:45.766Z,100823.28
2023-03-12T19:04:17.066Z,100833.00
2023-03-12T19:06:51.289Z,100843.69
2023-03-12T19:09:19.260Z,100844.41
2023-03-12T19:11:49.610Z,100839.97
2023-03-12T19:14:16.921Z,100840.59
2023-03-12T19:16:43.872Z,100843.44
2023-03-12T19:19:10.786Z,100855.81
2023-03-12T19:21:37.688Z,100855.56
2023-03-12T19:24:04.840Z,100860.25
2023-03-12T19:41:53.927Z,100880.75
2023-03-12T19:44:20.746Z,100872.19
2023-03-12T19:46:47.696Z,100876.78
2023-03-12T19:49:14.925Z,100876.00
2023-03-12T19:51:42.006Z,100886.63
2023-03-12T19:54:08.866Z,100889.09
2023-03-12T19:56:35.735Z,100886.16
2023-03-12T19:59:02.658Z,100891.38
2023-03-12T20:01:29.458Z,100896.06
2023-03-12T20:03:56.340Z,100894.31
2023-03-12T20:06:23.277Z,100894.38
2023-03-12T20:08:50.182Z,100902.06
2023-03-12T20:11:17.145Z,100915.34
2023-03-12T20:13:44.023Z,100911.78
2023-03-12T20:16:13.259Z,100917.00
2023-03-12T20:18:40.160Z,100916.25
2023-03-12T20:21:07.077Z,100912.97
2023-03-12T20:23:34.120Z,100908.88
2023-03-12T20:26:00.946Z,100916.25
2023-03-12T20:28:28.110Z,100920.91
2023-03-12T20:30:55.431Z,100919.25
2023-03-12T20:33:22.503Z,100921.66
2023-03-12T20:35:50.525Z,100919.47
2023-03-12T20:38:17.544Z,100915.06
2023-03-12T20:40:46.209Z,100920.53
2023-03-12T20:43:13.093Z,100915.59
2023-03-12T20:45:39.946Z,100918.16
2023-03-12T20:48:06.904Z,100917.34
2023-03-12T20:50:39.396Z,100928.03
2023-03-12T20:53:06.975Z,100923.44
2023-03-12T20:55:33.876Z,100923.44
2023-03-12T20:58:00.697Z,100933.28
2023-03-12T21:00:27.542Z,100934.41
2023-03-12T21:02:54.367Z,100928.66
2023-03-12T21:05:23.924Z,100931.41
2023-03-12T21:07:53.822Z,100930.59
2023-03-12T21:10:21.302Z,100941.78
2023-03-12T21:12:48.128Z,100946.44
2023-03-12T21:15:15.132Z,100943.16
2023-03-12T21:17:42.001Z,100953.28
2023-03-12T21:20:13.174Z,100949.97
2023-03-12T21:22:41.522Z,100949.19
2023-03-12T21:25:08.737Z,100954.09
2023-03-12T21:27:44.695Z,100951.91
2023-03-12T21:30:17.265Z,100962.00
2023-03-12T21:32:44.255Z,100950.25
2023-03-12T21:35:11.438Z,100945.09
2023-03-12T21:37:38.393Z,100959.56
2023-03-12T21:40:05.788Z,100956.00
2023-03-12T21:42:33.735Z,100948.34
2023-03-12T21:45:00.594Z,100948.59
2023-03-12T21:47:27.426Z,100952.13
2023-03-12T21:49:54.278Z,100957.06
2023-03-12T21:52:21.135Z,100955.13
2023-03-12T21:54:48.105Z,100958.41
2023-03-12T21:57:15.068Z,100949.94
2023-03-12T21:59:41.996Z,100955.16
2023-03-12T22:02:14.896Z,100952.34
2023-03-12T22:04:42.187Z,100949.34
2023-03-12T22:07:09.147Z,100951.78
2023-03-12T22:09:36.092Z,100953.41
2023-03-12T22:12:03.550Z,100952.59
2023-03-12T22:14:30.421Z,100957.25
2023-03-12T22:16:57.451Z,100945.78
2023-03-12T22:19:24.574Z,100951.47
2023-03-12T22:21:51.402Z,100955.03
2023-03-12T22:24:18.329Z,100955.84
2023-03-12T22:26:46.212Z,100955.03
2023-03-12T22:29:13.215Z,100956.38
2023-03-12T22:31:40.124Z,100962.16
2023-03-12T22:34:07.025Z,100955.59
2023-03-12T22:36:33.999Z,100959.69
2023-03-12T22:39:00.925Z,100962.72
2023-03-12T22:41:29.598Z,100971.47
2023-03-12T22:44:01.109Z,100966.00
2023-03-12T22:46:29.137Z,100971.97
2023-03-12T22:48:59.289Z,100973.41
2023-03-12T22:51:27.544Z,100971.97
2023-03-12T22:53:54.542Z,100970.63
2023-03-12T22:56:21.502Z,100971.41
2023-03-12T22:58:49.055Z,100969.78
2023-03-12T23:01:19.120Z,100976.84
2023-03-12T23:03:49.879Z,100977.66
2023-03-12T23:06:20.540Z,100980.38
2023-03-12T23:08:48.098Z,100982.56
2023-03-12T23:11:16.397Z,100991.34
2023-03-12T23:13:44.977Z,101004.41
2023-03-12T23:16:17.449Z,101003.66
2023-03-12T23:18:47.763Z,100997.91
2023-03-12T23:21:22.577Z,101006.34
2023-03-12T23:23:50.211Z,101008.75
2023-03-12T23:26:21.876Z,101013.06
2023-03-12T23:28:51.623Z,101022.38
2023-03-12T23:31:19.719Z,101019.84
2023-03-12T23:33:48.330Z,101019.78
2023-03-12T23:36:19.111Z,101018.94
2023-03-12T23:38:47.409Z,101020.41
2023-03-12T23:41:20.807Z,101011.59
2023-03-12T23:43:48.359Z,101017.88
2023-03-12T23:46:17.281Z,101013.28
2023-03-12T23:48:48.237Z,101023.16
2023-03-12T23:51:17.648Z,101017.06
2023-03-12T23:53:47.358Z,101023.91
2023-03-12T23:56:17.364Z,101025.84
2023-03-12T23:58:47.655Z,101034.03
